Time;durP1;ratioP1;P1;durP2;ratioP2;P2;SDS_P1;SDS_P2;PMS_P1;PMS_P2;Temp;Humidity;BMP_temperature;BMP_pressure;BME280_temperature;BME280_humidity;BME280_pressure;Samples;Min_cycle;Max_cycle;Signal;HPM_P1;HPM_P2
2023/06/13 00:00:31;;;;;;;7.60;3.40;;;19.50;85.20;;;;;;5014808;28;21034;-69
2023/06/13 00:03:00;;;;;;;6.50;3.57;;;19.60;84.80;;;;;;5032519;28;20454;-69
2023/06/13 00:05:27;;;;;;;7.43;3.47;;;19.50;85.30;;;;;;5032375;28;20868;-69
2023/06/13 00:07:54;;;;;;;5.63;3.47;;;19.60;85.30;;;;;;5032339;28;20454;-69
2023/06/13 00:10:21;;;;;;;6.43;3.70;;;19.50;85.40;;;;;;5032311;28;20455;-69
2023/06/13 00:12:49;;;;;;;5.53;3.33;;;19.40;85.80;;;;;;5031949;28;20544;-69
2023/06/13 00:15:18;;;;;;;7.27;3.60;;;19.40;85.60;;;;;;5032257;28;20446;-69
2023/06/13 00:17:47;;;;;;;8.40;3.83;;;19.30;85.20;;;;;;5046941;28;20508;-69
2023/06/13 00:20:18;;;;;;;7.70;3.57;;;19.30;86.00;;;;;;5051975;28;20458;-69
2023/06/13 00:22:46;;;;;;;4.40;3.10;;;19.30;86.50;;;;;;5034515;28;20462;-69
2023/06/13 00:25:13;;;;;;;12.63;3.60;;;19.30;86.30;;;;;;5051930;28;20806;-69
2023/06/13 00:27:40;;;;;;;5.90;3.20;;;19.30;85.90;;;;;;5051535;28;20465;-69
2023/06/13 00:30:08;;;;;;;7.07;3.50;;;19.20;86.30;;;;;;5017595;28;20449;-69
2023/06/13 00:32:40;;;;;;;7.60;3.80;;;19.00;86.70;;;;;;5051341;28;20488;-69
2023/06/13 00:35:08;;;;;;;7.50;3.90;;;18.80;87.30;;;;;;5051820;28;20532;-69
2023/06/13 00:37:36;;;;;;;6.70;3.93;;;18.70;87.40;;;;;;5051442;28;20540;-69
2023/06/13 00:40:05;;;;;;;6.10;3.30;;;18.70;87.70;;;;;;5051369;28;20450;-69
2023/06/13 00:42:33;;;;;;;6.30;3.60;;;18.70;87.70;;;;;;5051468;28;20461;-69
2023/06/13 00:45:19;;;;;;;5.77;3.50;;;18.70;87.80;;;;;;5034045;28;20462;-69
2023/06/13 00:47:55;;;;;;;5.20;3.07;;;18.60;88.60;;;;;;5051235;28;20457;-69
2023/06/13 00:50:26;;;;;;;5.57;3.43;;;18.50;88.90;;;;;;5051609;28;20457;-69
2023/06/13 00:52:54;;;;;;;4.80;3.20;;;18.50;89.20;;;;;;5034400;28;20485;-69
2023/06/13 00:55:23;;;;;;;5.53;3.40;;;18.30;89.70;;;;;;5051432;28;20469;-69
2023/06/13 00:57:51;;;;;;;7.27;3.70;;;18.10;90.40;;;;;;5033698;28;20899;-69
2023/06/13 01:00:19;;;;;;;5.47;3.40;;;18.10;90.70;;;;;;5051446;28;20458;-69
2023/06/13 01:02:48;;;;;;;7.20;4.03;;;18.00;90.80;;;;;;5051419;28;20548;-69
2023/06/13 01:05:16;;;;;;;6.80;3.37;;;18.00;90.70;;;;;;5051316;28;20456;-69
2023/06/13 01:07:45;;;;;;;5.50;3.50;;;18.00;91.00;;;;;;5051339;28;20457;-69
2023/06/13 01:10:12;;;;;;;5.20;2.90;;;17.80;91.80;;;;;;5051185;28;20497;-69
2023/06/13 01:12:47;;;;;;;4.80;3.00;;;17.90;91.70;;;;;;5050906;28;20543;-69
2023/06/13 01:15:18;;;;;;;7.63;4.13;;;17.80;92.30;;;;;;5051161;28;20867;-69
2023/06/13 01:17:57;;;;;;;6.10;3.37;;;17.60;93.30;;;;;;5050750;28;20474;-69
2023/06/13 01:20:26;;;;;;;5.47;3.27;;;17.20;93.90;;;;;;5051023;28;20536;-69
2023/06/13 01:22:57;;;;;;;5.73;3.37;;;17.30;94.00;;;;;;5050994;28;20710;-69
2023/06/13 01:25:37;;;;;;;6.33;3.50;;;17.20;93.80;;;;;;5050947;28;20539;-69
2023/06/13 01:28:07;;;;;;;5.67;3.30;;;17.20;94.00;;;;;;5051008;28;20450;-69
2023/06/13 01:30:35;;;;;;;6.00;3.07;;;17.10;94.50;;;;;;5033481;28;20557;-69
2023/06/13 01:33:04;;;;;;;6.10;3.50;;;17.10;94.30;;;;;;5050684;28;20824;-69
2023/06/13 01:35:32;;;;;;;7.00;3.40;;;17.00;95.40;;;;;;5050816;28;20543;-69
2023/06/13 01:37:59;;;;;;;5.17;3.13;;;17.00;95.00;;;;;;5050671;28;20546;-69
2023/06/13 01:40:26;;;;;;;5.20;3.10;;;17.10;94.80;;;;;;5050862;28;20541;-69
2023/06/13 01:42:53;;;;;;;3.97;3.10;;;17.10;94.40;;;;;;5051093;28;20527;-69
2023/06/13 01:45:23;;;;;;;5.80;3.40;;;17.20;94.70;;;;;;5033207;28;20453;-69
2023/06/13 01:47:59;;;;;;;7.87;3.20;;;17.10;94.80;;;;;;5050527;28;20462;-69
2023/06/13 01:50:32;;;;;;;6.60;3.20;;;17.00;95.10;;;;;;5033163;28;20461;-69
2023/06/13 01:53:05;;;;;;;5.93;3.10;;;16.80;95.40;;;;;;5052816;28;21010;-69
2023/06/13 01:56:16;;;;;;;5.43;3.13;;;16.70;96.30;;;;;;5054779;28;20461;-69
2023/06/13 01:58:49;;;;;;;6.20;3.50;;;16.60;96.70;;;;;;5054650;28;20476;-69
2023/06/13 02:01:21;;;;;;;6.33;3.50;;;16.60;96.60;;;;;;5054650;28;20457;-69
2023/06/13 02:03:48;;;;;;;7.33;3.47;;;16.50;97.30;;;;;;5036600;28;20461;-69
2023/06/13 02:06:16;;;;;;;6.50;3.87;;;16.40;97.90;;;;;;5054434;28;20477;-69
2023/06/13 02:08:43;;;;;;;5.37;3.63;;;16.40;97.90;;;;;;5054260;28;20456;-69
2023/06/13 02:11:10;;;;;;;4.47;2.90;;;16.40;97.90;;;;;;5036643;28;21005;-69
2023/06/13 02:13:38;;;;;;;7.67;3.63;;;16.40;97.90;;;;;;5054070;28;20503;-69
2023/06/13 02:16:05;;;;;;;6.67;3.30;;;16.30;98.00;;;;;;5036719;28;20457;-69
2023/06/13 02:18:37;;;;;;;3.90;2.80;;;16.10;98.00;;;;;;5054040;28;20493;-69
2023/06/13 02:21:04;;;;;;;7.43;3.10;;;16.10;98.00;;;;;;5054106;28;20462;-69
2023/06/13 02:23:32;;;;;;;4.67;2.80;;;16.20;98.00;;;;;;5054003;28;20987;-69
2023/06/13 02:25:59;;;;;;;5.13;3.23;;;16.10;98.00;;;;;;5054209;28;20453;-69
2023/06/13 02:28:26;;;;;;;6.37;3.10;;;16.10;98.00;;;;;;5053896;28;20797;-69
2023/06/13 02:30:54;;;;;;;5.47;3.07;;;16.20;98.00;;;;;;5054100;28;20528;-69
2023/06/13 02:33:21;;;;;;;5.17;3.00;;;16.20;98.00;;;;;;5053731;28;20554;-69
2023/06/13 02:35:50;;;;;;;5.37;3.10;;;16.20;98.00;;;;;;5053910;28;20859;-69
2023/06/13 02:38:18;;;;;;;4.97;3.17;;;16.30;98.00;;;;;;5036223;28;20511;-69
2023/06/13 02:40:45;;;;;;;5.50;3.07;;;16.20;98.00;;;;;;5053838;28;20450;-69
2023/06/13 02:43:12;;;;;;;5.60;3.27;;;16.00;98.00;;;;;;5053831;28;20611;-69
2023/06/13 02:45:40;;;;;;;4.90;3.10;;;16.10;98.00;;;;;;5053706;28;20848;-69
2023/06/13 02:48:07;;;;;;;4.87;2.93;;;16.20;98.00;;;;;;5053745;28;20458;-69
2023/06/13 02:50:34;;;;;;;5.57;3.37;;;16.00;98.00;;;;;;5053905;28;20548;-69
2023/06/13 02:53:02;;;;;;;6.60;3.80;;;16.10;98.00;;;;;;5053960;28;20485;-69
2023/06/13 02:55:30;;;;;;;6.60;3.70;;;16.00;98.00;;;;;;5035973;28;20460;-69
2023/06/13 02:57:58;;;;;;;5.87;3.07;;;16.00;98.00;;;;;;5053355;28;20939;-68
2023/06/13 03:00:25;;;;;;;4.70;3.00;;;16.00;98.00;;;;;;5035356;28;20454;-69
2023/06/13 03:02:52;;;;;;;4.93;3.07;;;16.00;98.00;;;;;;5053318;28;20489;-69
2023/06/13 03:05:20;;;;;;;4.50;2.80;;;15.90;98.00;;;;;;5052200;28;20503;-69
2023/06/13 03:07:47;;;;;;;5.10;3.23;;;15.80;98.00;;;;;;5053088;28;20446;-68
2023/06/13 03:10:16;;;;;;;6.13;3.13;;;15.60;98.00;;;;;;5053297;28;20890;-69
2023/06/13 03:12:43;;;;;;;5.30;3.20;;;15.70;98.00;;;;;;5052852;28;20573;-69
2023/06/13 03:15:12;;;;;;;5.80;3.10;;;15.60;98.00;;;;;;5053021;28;20959;-69
2023/06/13 03:17:40;;;;;;;9.63;3.00;;;15.60;98.00;;;;;;5034990;28;20532;-68
2023/06/13 03:20:09;;;;;;;5.27;2.90;;;15.50;98.00;;;;;;5035384;28;20454;-69
2023/06/13 03:22:36;;;;;;;4.90;2.77;;;15.40;98.00;;;;;;5052893;28;20457;-69
2023/06/13 03:25:05;;;;;;;6.43;3.43;;;15.40;98.00;;;;;;5035362;28;20515;-68
2023/06/13 03:27:35;;;;;;;5.70;3.40;;;15.40;98.00;;;;;;5052803;28;20879;-68
2023/06/13 03:30:02;;;;;;;5.80;2.90;;;15.40;98.00;;;;;;5035316;28;20462;-69
2023/06/13 03:32:29;;;;;;;4.70;3.10;;;15.30;98.00;;;;;;5052711;28;20485;-68
2023/06/13 03:34:56;;;;;;;6.10;3.43;;;15.10;98.00;;;;;;5033887;28;20457;-68
2023/06/13 03:37:24;;;;;;;4.17;2.83;;;14.90;98.00;;;;;;5052736;28;20457;-68
2023/06/13 03:39:51;;;;;;;4.33;2.83;;;14.80;98.00;;;;;;5052752;28;20463;-69
2023/06/13 03:42:18;;;;;;;5.23;3.07;;;14.70;98.00;;;;;;5052707;28;20527;-68
2023/06/13 03:44:48;;;;;;;5.90;3.60;;;14.60;98.00;;;;;;5052818;28;20885;-68
2023/06/13 03:47:15;;;;;;;6.93;3.00;;;14.80;98.00;;;;;;5052715;28;20457;-68
2023/06/13 03:49:43;;;;;;;4.77;2.90;;;14.90;98.00;;;;;;5052802;28;20469;-68
2023/06/13 03:52:11;;;;;;;5.43;3.10;;;14.90;98.00;;;;;;5052379;28;20513;-68
2023/06/13 03:54:38;;;;;;;5.83;3.37;;;15.00;98.00;;;;;;5034830;28;20876;-68
2023/06/13 03:57:07;;;;;;;4.30;3.10;;;15.00;98.00;;;;;;5052233;28;20450;-68
2023/06/13 03:59:35;;;;;;;4.47;2.87;;;15.00;98.00;;;;;;5052298;28;20849;-68
2023/06/13 04:02:04;;;;;;;5.23;3.03;;;14.80;98.00;;;;;;5052203;28;20446;-68
2023/06/13 04:04:32;;;;;;;5.97;2.73;;;14.90;98.00;;;;;;5052167;28;20473;-68
2023/06/13 04:07:05;;;;;;;5.90;3.20;;;15.10;98.00;;;;;;5052084;28;20457;-68
2023/06/13 04:09:32;;;;;;;5.70;3.03;;;14.90;98.00;;;;;;5052097;28;20458;-68
2023/06/13 04:11:59;;;;;;;4.17;2.93;;;14.90;98.00;;;;;;5051830;28;20504;-68
2023/06/13 04:14:26;;;;;;;5.43;3.10;;;14.90;98.00;;;;;;5051990;28;20457;-68
2023/06/13 04:16:54;;;;;;;5.47;2.97;;;14.90;98.00;;;;;;5051375;28;20955;-68
2023/06/13 04:19:23;;;;;;;5.00;2.87;;;14.90;98.00;;;;;;5034161;28;20458;-68
2023/06/13 04:21:52;;;;;;;5.47;3.10;;;14.90;98.00;;;;;;5051771;28;20885;-68
2023/06/13 04:24:21;;;;;;;3.23;2.60;;;14.90;98.00;;;;;;5051725;28;20464;-68
2023/06/13 04:26:48;;;;;;;4.90;2.67;;;15.00;98.00;;;;;;5051903;28;20877;-68
2023/06/13 04:29:18;;;;;;;4.83;3.10;;;14.90;98.00;;;;;;5051845;28;20457;-68
2023/06/13 04:31:46;;;;;;;6.50;3.60;;;14.90;98.00;;;;;;5051592;28;20454;-68
2023/06/13 04:34:14;;;;;;;5.47;3.60;;;14.90;98.00;;;;;;5051454;28;20525;-68
2023/06/13 04:36:44;;;;;;;5.40;2.97;;;15.00;98.00;;;;;;5033944;28;20511;-68
2023/06/13 04:39:20;;;;;;;7.37;3.60;;;14.90;98.00;;;;;;5051687;28;20948;-68
2023/06/13 04:41:48;;;;;;;4.33;2.90;;;14.90;98.00;;;;;;5051850;28;20899;-68
2023/06/13 04:44:15;;;;;;;5.80;2.63;;;15.00;98.00;;;;;;5051622;28;20525;-68
2023/06/13 04:46:43;;;;;;;5.87;3.40;;;15.10;98.00;;;;;;5051526;28;20458;-68
2023/06/13 04:49:11;;;;;;;4.20;2.70;;;15.00;98.00;;;;;;5050868;28;20967;-68
2023/06/13 04:51:40;;;;;;;6.20;3.00;;;15.10;98.00;;;;;;5034007;28;20454;-68
2023/06/13 04:54:09;;;;;;;4.40;2.53;;;15.10;98.00;;;;;;5050973;28;20489;-68
2023/06/13 04:56:37;;;;;;;5.23;3.20;;;15.30;98.00;;;;;;5051302;28;20502;-68
2023/06/13 04:59:05;;;;;;;4.70;3.20;;;15.50;98.00;;;;;;5033603;28;20508;-68
2023/06/13 05:01:33;;;;;;;5.23;3.00;;;15.70;98.00;;;;;;5051135;28;20457;-68
2023/06/13 05:04:01;;;;;;;5.33;3.20;;;15.70;98.00;;;;;;5051180;28;20462;-68
2023/06/13 05:06:28;;;;;;;4.43;2.90;;;16.00;98.00;;;;;;5033703;28;20829;-68
2023/06/13 05:08:55;;;;;;;7.10;3.70;;;16.20;98.00;;;;;;5051098;28;20473;-68
2023/06/13 05:11:23;;;;;;;5.93;3.00;;;16.50;98.00;;;;;;5051256;28;20871;-68
2023/06/13 05:13:50;;;;;;;5.10;3.17;;;16.60;98.00;;;;;;5051054;28;20859;-68
2023/06/13 05:16:18;;;;;;;4.47;3.00;;;16.70;97.80;;;;;;5051187;28;20491;-68
2023/06/13 05:18:46;;;;;;;8.50;3.13;;;16.90;98.00;;;;;;5050854;28;20476;-68
2023/06/13 05:21:16;;;;;;;5.73;3.07;;;16.90;97.10;;;;;;5050908;28;20460;-68
2023/06/13 05:23:44;;;;;;;5.30;2.90;;;17.00;97.70;;;;;;5033670;28;20450;-68
2023/06/13 05:26:11;;;;;;;5.20;3.00;;;17.00;98.00;;;;;;5050963;28;20457;-68
2023/06/13 05:28:40;;;;;;;6.57;3.40;;;17.00;97.60;;;;;;5053830;28;20504;-68
2023/06/13 05:31:12;;;;;;;5.00;2.80;;;17.10;94.20;;;;;;5055275;28;20464;-68
2023/06/13 05:33:39;;;;;;;4.73;2.73;;;17.20;95.80;;;;;;5055150;28;20515;-68
2023/06/13 05:36:06;;;;;;;4.77;3.00;;;17.30;95.70;;;;;;5037665;28;20454;-68
2023/06/13 05:38:33;;;;;;;6.10;3.10;;;17.40;94.80;;;;;;5055038;28;20458;-68
2023/06/13 05:41:00;;;;;;;5.77;3.23;;;17.50;94.60;;;;;;5054925;28;20540;-68
2023/06/13 05:43:28;;;;;;;7.70;3.10;;;17.60;94.00;;;;;;5054710;28;20963;-68
2023/06/13 05:45:56;;;;;;;6.07;3.37;;;17.60;93.80;;;;;;5054957;28;20469;-68
2023/06/13 05:48:24;;;;;;;6.30;3.63;;;17.60;93.80;;;;;;5055093;28;20450;-68
2023/06/13 05:50:51;;;;;;;4.60;2.70;;;17.70;91.90;;;;;;5054924;28;20457;-68
2023/06/13 05:53:18;;;;;;;4.70;3.00;;;17.80;90.60;;;;;;5054539;28;21002;-66
2023/06/13 05:55:45;;;;;;;5.70;2.93;;;17.90;90.70;;;;;;5054589;28;20453;-65
2023/06/13 05:58:13;;;;;;;4.67;2.90;;;17.90;89.50;;;;;;5054502;28;20495;-66
2023/06/13 06:00:41;;;;;;;4.47;3.00;;;18.00;89.10;;;;;;5054156;28;20508;-66
2023/06/13 06:03:09;;;;;;;3.33;2.70;;;18.00;88.60;;;;;;5054396;28;20963;-66
2023/06/13 06:05:36;;;;;;;6.17;3.40;;;18.20;88.20;;;;;;5054503;28;20623;-66
2023/06/13 06:08:03;;;;;;;3.70;2.50;;;18.30;87.90;;;;;;5020229;28;20492;-65
2023/06/13 06:10:30;;;;;;;5.20;2.90;;;18.30;86.90;;;;;;5054055;28;20457;-66
2023/06/13 06:12:58;;;;;;;7.47;2.70;;;18.60;93.80;;;;;;5054561;28;21242;-66
2023/06/13 06:15:25;;;;;;;4.80;2.70;;;18.90;96.00;;;;;;5055141;28;20461;-66
2023/06/13 06:17:52;;;;;;;9.60;3.00;;;19.30;91.40;;;;;;5020795;28;20466;-66
2023/06/13 06:20:20;;;;;;;4.07;2.63;;;19.50;90.40;;;;;;5055153;28;20531;-66
2023/06/13 06:22:47;;;;;;;4.27;2.80;;;19.60;84.20;;;;;;5055006;28;21001;-66
2023/06/13 06:25:19;;;;;;;4.00;2.87;;;19.70;87.70;;;;;;5055061;28;20454;-65
2023/06/13 06:27:47;;;;;;;5.53;3.40;;;19.80;84.20;;;;;;5055022;28;20454;-65
2023/06/13 06:30:14;;;;;;;4.47;3.13;;;19.90;82.50;;;;;;5054906;28;20450;-65
2023/06/13 06:32:42;;;;;;;5.03;3.00;;;19.70;81.70;;;;;;5054780;28;20473;-66
2023/06/13 06:35:10;;;;;;;4.80;3.00;;;19.80;84.20;;;;;;5054554;28;20449;-65
2023/06/13 06:37:39;;;;;;;4.13;2.90;;;19.80;85.10;;;;;;5054305;28;20457;-65
2023/06/13 06:40:08;;;;;;;6.13;3.40;;;19.90;83.00;;;;;;5054063;28;20948;-65
2023/06/13 06:42:35;;;;;;;8.63;3.73;;;19.90;80.60;;;;;;5054562;28;20456;-65
2023/06/13 06:45:03;;;;;;;5.43;2.93;;;19.90;81.00;;;;;;5054469;28;20951;-65
2023/06/13 06:47:30;;;;;;;7.00;3.27;;;19.90;79.80;;;;;;5036692;28;20469;-65
2023/06/13 06:49:57;;;;;;;6.77;3.33;;;19.80;78.10;;;;;;5054437;28;20983;-65
2023/06/13 06:52:24;;;;;;;4.63;2.50;;;19.90;80.10;;;;;;5054116;28;20466;-65
2023/06/13 06:54:53;;;;;;;5.33;2.93;;;20.00;80.00;;;;;;5054178;28;20481;-65
2023/06/13 06:57:20;;;;;;;6.70;3.17;;;20.00;82.10;;;;;;5036538;28;20462;-65
2023/06/13 06:59:48;;;;;;;5.00;2.73;;;20.20;82.50;;;;;;5054087;28;20531;-65
2023/06/13 07:02:16;;;;;;;6.10;3.10;;;20.50;81.90;;;;;;5045843;28;20466;-65
2023/06/13 07:04:43;;;;;;;5.10;3.10;;;20.70;79.40;;;;;;5016019;28;20549;-65
2023/06/13 07:07:10;;;;;;;4.67;3.27;;;20.50;80.30;;;;;;5033272;28;20459;-65
2023/06/13 07:09:37;;;;;;;5.53;2.97;;;20.60;80.40;;;;;;5033247;28;20512;-65
2023/06/13 07:12:07;;;;;;;7.37;3.70;;;20.70;79.00;;;;;;5033055;28;20474;-66
2023/06/13 07:14:34;;;;;;;5.90;3.17;;;20.70;78.50;;;;;;5032990;28;20483;-65
2023/06/13 07:17:02;;;;;;;5.43;3.10;;;20.80;77.60;;;;;;5032925;28;20470;-65
2023/06/13 07:19:29;;;;;;;5.47;3.20;;;20.80;76.50;;;;;;5052217;28;20458;-66
2023/06/13 07:22:00;;;;;;;5.40;3.13;;;20.80;77.10;;;;;;5053291;28;20450;-65
2023/06/13 07:24:27;;;;;;;5.70;3.50;;;20.80;77.70;;;;;;5044286;28;20953;-66
2023/06/13 07:26:54;;;;;;;7.37;3.00;;;20.80;78.30;;;;;;5033767;28;20984;-66
2023/06/13 07:29:23;;;;;;;5.63;3.27;;;20.90;76.50;;;;;;5031571;28;20724;-65
2023/06/13 07:31:50;;;;;;;5.20;3.13;;;20.90;76.00;;;;;;5031745;28;20957;-66
2023/06/13 07:34:17;;;;;;;5.13;3.10;;;20.90;76.20;;;;;;5031478;28;20490;-67
2023/06/13 07:36:44;;;;;;;4.97;3.17;;;21.00;76.60;;;;;;5032974;28;20641;-66
2023/06/13 07:39:12;;;;;;;4.80;3.00;;;21.00;77.00;;;;;;5032549;28;20984;-67
2023/06/13 07:41:40;;;;;;;5.63;3.50;;;21.20;77.20;;;;;;5032542;28;20937;-65
2023/06/13 07:44:07;;;;;;;5.03;3.17;;;21.20;76.90;;;;;;5032755;28;20469;-65
2023/06/13 07:46:37;;;;;;;4.33;3.10;;;21.40;76.10;;;;;;5032388;28;20462;-64
2023/06/13 07:49:04;;;;;;;5.33;3.00;;;21.40;76.40;;;;;;5014615;28;21112;-65
2023/06/13 07:51:32;;;;;;;6.17;3.60;;;21.40;74.50;;;;;;5031572;28;20458;-65
2023/06/13 07:53:59;;;;;;;4.63;3.10;;;21.50;74.50;;;;;;5032445;28;20509;-65
2023/06/13 07:56:26;;;;;;;5.67;3.13;;;21.50;74.80;;;;;;5032175;28;20878;-65
2023/06/13 07:58:53;;;;;;;9.50;3.33;;;21.60;75.20;;;;;;5031878;28;20552;-65
2023/06/13 08:01:22;;;;;;;7.43;3.50;;;21.60;74.10;;;;;;5032217;28;20821;-65
2023/06/13 08:03:50;;;;;;;6.63;3.30;;;21.70;74.90;;;;;;5032163;28;20505;-65
2023/06/13 08:06:17;;;;;;;8.80;3.13;;;21.80;74.40;;;;;;5032369;28;20459;-65
2023/06/13 08:08:46;;;;;;;5.33;3.37;;;21.80;73.70;;;;;;5032020;28;20797;-65
2023/06/13 08:11:13;;;;;;;4.70;3.07;;;21.90;72.90;;;;;;5032000;28;20535;-65
2023/06/13 08:13:40;;;;;;;6.00;3.90;;;22.00;74.50;;;;;;5032016;28;20992;-65
2023/06/13 08:16:07;;;;;;;13.53;3.30;;;22.10;72.20;;;;;;5031992;28;20458;-65
2023/06/13 08:18:34;;;;;;;6.53;3.30;;;22.30;72.20;;;;;;5031787;28;20822;-65
2023/06/13 08:21:02;;;;;;;6.10;3.37;;;22.30;72.40;;;;;;5032085;28;20481;-65
2023/06/13 08:23:29;;;;;;;5.37;3.37;;;22.30;70.60;;;;;;5031943;28;20462;-65
2023/06/13 08:25:57;;;;;;;4.80;3.07;;;22.30;71.80;;;;;;5014775;28;20729;-66
2023/06/13 08:28:25;;;;;;;6.37;3.60;;;22.30;72.40;;;;;;5031627;28;20964;-66
2023/06/13 08:30:53;;;;;;;5.37;3.13;;;22.50;71.90;;;;;;5031777;28;20462;-66
2023/06/13 08:33:21;;;;;;;4.43;3.17;;;22.60;72.10;;;;;;5013928;28;20458;-66
2023/06/13 08:35:48;;;;;;;4.40;2.90;;;22.70;71.80;;;;;;5031692;28;20454;-66
2023/06/13 08:38:16;;;;;;;5.90;3.33;;;22.80;71.40;;;;;;5031892;28;20453;-66
2023/06/13 08:40:43;;;;;;;6.50;3.70;;;22.80;70.40;;;;;;5014331;28;20474;-66
2023/06/13 08:43:11;;;;;;;6.60;3.70;;;22.90;71.70;;;;;;5031257;28;20455;-66
2023/06/13 08:45:39;;;;;;;5.23;3.27;;;23.00;70.40;;;;;;5031609;28;20442;-66
2023/06/13 08:48:06;;;;;;;4.90;3.13;;;23.00;70.70;;;;;;5031875;28;20879;-66
2023/06/13 08:50:33;;;;;;;5.67;3.40;;;23.10;69.80;;;;;;5031756;28;20462;-66
2023/06/13 08:53:02;;;;;;;4.83;3.33;;;23.00;69.30;;;;;;5032168;28;20903;-66
2023/06/13 08:55:36;;;;;;;6.80;3.17;;;23.20;70.10;;;;;;5030196;28;20489;-66
2023/06/13 08:58:06;;;;;;;6.40;3.37;;;23.30;69.80;;;;;;5014710;28;20513;-66
2023/06/13 09:00:35;;;;;;;4.90;3.30;;;23.50;71.20;;;;;;5031880;28;20770;-66
2023/06/13 09:03:05;;;;;;;6.13;3.30;;;23.60;69.70;;;;;;5031457;28;20533;-66
2023/06/13 09:05:33;;;;;;;7.63;4.07;;;23.70;68.60;;;;;;5031591;28;20957;-66
2023/06/13 09:08:02;;;;;;;5.27;3.17;;;23.80;68.30;;;;;;5031722;28;20871;-66
2023/06/13 09:10:31;;;;;;;5.20;3.43;;;23.80;68.40;;;;;;5031569;28;20457;-66
2023/06/13 09:12:59;;;;;;;7.07;3.60;;;23.90;69.00;;;;;;5013844;28;20473;-66
2023/06/13 09:15:27;;;;;;;11.27;3.57;;;24.00;67.70;;;;;;5014144;28;20510;-66
2023/06/13 09:17:56;;;;;;;30.17;3.73;;;24.00;68.40;;;;;;5031622;28;20471;-66
2023/06/13 09:20:25;;;;;;;5.70;3.50;;;24.10;67.20;;;;;;5031658;28;20462;-66
2023/06/13 09:22:53;;;;;;;5.50;3.57;;;24.10;66.70;;;;;;5031521;28;20952;-66
2023/06/13 09:25:23;;;;;;;4.70;2.90;;;24.00;66.90;;;;;;5031456;28;20450;-66
2023/06/13 09:27:52;;;;;;;5.87;3.60;;;24.20;67.20;;;;;;5031468;28;20557;-66
2023/06/13 09:30:19;;;;;;;4.87;3.10;;;24.30;66.70;;;;;;5031198;28;20462;-66
2023/06/13 09:32:49;;;;;;;6.57;3.60;;;24.50;66.90;;;;;;5031246;28;20478;-66
2023/06/13 09:35:17;;;;;;;5.20;3.33;;;24.60;67.30;;;;;;5031380;28;20593;-66
2023/06/13 09:37:44;;;;;;;4.87;3.43;;;24.60;66.30;;;;;;5031166;28;20500;-66
2023/06/13 09:40:13;;;;;;;5.30;3.23;;;24.70;65.30;;;;;;5031290;28;20512;-66
2023/06/13 09:42:43;;;;;;;4.77;3.17;;;24.70;65.80;;;;;;5031122;28;20454;-66
2023/06/13 09:45:14;;;;;;;8.10;3.50;;;24.80;66.30;;;;;;5031296;28;20463;-66
2023/06/13 09:47:43;;;;;;;5.70;3.60;;;25.00;66.20;;;;;;5031205;28;20478;-66
2023/06/13 09:50:11;;;;;;;8.10;3.53;;;25.10;65.50;;;;;;5031254;28;20546;-66
2023/06/13 09:52:38;;;;;;;5.47;3.93;;;25.10;65.80;;;;;;5013602;28;20462;-66
2023/06/13 09:55:08;;;;;;;5.00;3.47;;;25.10;65.10;;;;;;5031090;28;20482;-66
2023/06/13 09:57:35;;;;;;;6.00;3.63;;;25.30;64.60;;;;;;5031014;28;20565;-66
2023/06/13 10:00:07;;;;;;;5.93;3.63;;;25.40;63.90;;;;;;5013580;28;21004;-67
2023/06/13 10:02:36;;;;;;;6.37;3.50;;;25.50;64.10;;;;;;5031344;28;20454;-66
2023/06/13 10:05:03;;;;;;;5.43;3.50;;;25.70;65.10;;;;;;5013338;28;21035;-66
2023/06/13 10:07:30;;;;;;;6.27;3.50;;;26.00;65.80;;;;;;5013646;28;20494;-66
2023/06/13 10:09:58;;;;;;;5.70;3.40;;;25.90;63.60;;;;;;5013652;28;20486;-67
2023/06/13 10:12:26;;;;;;;9.47;3.63;;;25.90;62.70;;;;;;5013886;28;20490;-66
2023/06/13 10:14:58;;;;;;;6.13;3.60;;;26.00;64.70;;;;;;5034293;28;20486;-66
2023/06/13 10:17:28;;;;;;;4.63;3.37;;;26.20;64.20;;;;;;5034606;28;20466;-66
2023/06/13 10:20:04;;;;;;;4.83;3.50;;;26.10;65.00;;;;;;5034362;28;21039;-66
2023/06/13 10:22:32;;;;;;;5.70;3.60;;;26.20;64.60;;;;;;5034413;28;20454;-66
2023/06/13 10:24:59;;;;;;;5.37;3.50;;;26.30;64.30;;;;;;5034707;28;20464;-66
2023/06/13 10:27:27;;;;;;;5.87;3.60;;;26.40;63.80;;;;;;5034427;28;20450;-66
2023/06/13 10:30:18;;;;;;;5.23;3.57;;;26.40;63.50;;;;;;5034551;28;20508;-66
2023/06/13 10:33:14;;;;;;;5.97;3.30;;;26.40;63.30;;;;;;5034279;28;20469;-66
2023/06/13 10:36:17;;;;;;;6.00;3.57;;;26.60;63.00;;;;;;5034202;28;20486;-67
2023/06/13 10:39:10;;;;;;;4.53;3.27;;;26.80;63.00;;;;;;5032088;28;20928;-66
2023/06/13 10:41:57;;;;;;;4.77;3.43;;;27.00;62.20;;;;;;5034183;28;20537;-66
2023/06/13 10:44:32;;;;;;;5.93;3.70;;;27.10;61.00;;;;;;5016590;28;20454;-66
2023/06/13 10:47:00;;;;;;;7.20;3.33;;;27.10;62.20;;;;;;5034270;28;20454;-66
2023/06/13 10:49:37;;;;;;;6.73;3.47;;;27.30;61.80;;;;;;5033974;28;20544;-66
2023/06/13 10:52:11;;;;;;;4.73;3.30;;;27.40;61.30;;;;;;5034117;28;20478;-66
2023/06/13 10:54:40;;;;;;;5.70;3.63;;;27.40;60.80;;;;;;5034064;28;20478;-66
2023/06/13 10:57:10;;;;;;;8.53;3.50;;;27.40;60.80;;;;;;5016364;28;20508;-66
2023/06/13 10:59:38;;;;;;;4.77;3.43;;;27.50;60.60;;;;;;5016648;28;20450;-66
2023/06/13 11:02:09;;;;;;;7.93;3.63;;;27.60;60.20;;;;;;5034102;28;20454;-66
2023/06/13 11:04:40;;;;;;;4.73;3.47;;;27.80;60.00;;;;;;5033827;28;20573;-66
2023/06/13 11:07:33;;;;;;;5.40;3.60;;;27.80;59.80;;;;;;5034173;28;21005;-67
2023/06/13 11:10:05;;;;;;;6.03;3.87;;;27.90;59.40;;;;;;5033928;28;20522;-66
2023/06/13 11:12:33;;;;;;;5.60;4.03;;;28.00;58.10;;;;;;5033737;28;20458;-66
2023/06/13 11:15:03;;;;;;;5.63;3.70;;;28.10;58.90;;;;;;5033539;28;20518;-66
2023/06/13 11:17:30;;;;;;;5.80;3.70;;;28.40;59.30;;;;;;5015559;28;20477;-67
2023/06/13 11:20:00;;;;;;;5.70;3.67;;;28.60;60.00;;;;;;5033585;28;20512;-67
2023/06/13 11:22:29;;;;;;;6.30;3.47;;;28.90;59.80;;;;;;5033377;28;20964;-67
2023/06/13 11:24:58;;;;;;;4.93;3.47;;;29.10;58.70;;;;;;5032364;28;20458;-67
2023/06/13 11:27:26;;;;;;;5.67;3.50;;;29.20;58.10;;;;;;5015900;28;20467;-66
2023/06/13 11:29:53;;;;;;;4.87;3.50;;;29.30;57.90;;;;;;5033192;28;20458;-67
2023/06/13 11:32:22;;;;;;;6.80;4.00;;;29.40;57.70;;;;;;5033226;28;20967;-66
2023/06/13 11:34:51;;;;;;;12.10;3.93;;;29.50;57.60;;;;;;5033088;28;20490;-66
2023/06/13 11:37:28;;;;;;;5.83;3.63;;;29.60;57.50;;;;;;5033164;28;20553;-66
2023/06/13 11:39:57;;;;;;;5.57;3.60;;;29.80;57.60;;;;;;5032786;28;20885;-67
2023/06/13 11:42:26;;;;;;;5.70;3.90;;;30.00;56.90;;;;;;5033155;28;20455;-67
2023/06/13 11:44:53;;;;;;;5.80;3.80;;;29.90;56.30;;;;;;5015594;28;20466;-66
2023/06/13 11:47:22;;;;;;;6.10;3.60;;;29.80;55.40;;;;;;5033018;28;20508;-67
2023/06/13 11:49:56;;;;;;;5.40;3.70;;;29.70;57.20;;;;;;5015186;28;20458;-66
2023/06/13 11:52:23;;;;;;;4.33;3.40;;;29.80;56.60;;;;;;5032913;28;20968;-67
2023/06/13 11:54:50;;;;;;;4.70;3.37;;;30.10;56.60;;;;;;5032886;28;20594;-66
2023/06/13 11:57:19;;;;;;;6.70;4.10;;;30.20;57.20;;;;;;5015504;28;20459;-67
2023/06/13 11:59:46;;;;;;;7.70;4.00;;;30.50;55.10;;;;;;5032709;28;20546;-67
2023/06/13 12:02:15;;;;;;;7.40;4.47;;;30.60;54.90;;;;;;5032903;28;20462;-67
2023/06/13 12:04:45;;;;;;;6.43;3.87;;;30.80;55.50;;;;;;5032823;28;20541;-66
2023/06/13 12:07:13;;;;;;;5.90;4.00;;;31.00;54.50;;;;;;5032816;28;20494;-66
2023/06/13 12:09:43;;;;;;;5.90;3.60;;;31.10;54.40;;;;;;5015045;28;20461;-67
2023/06/13 12:12:12;;;;;;;6.17;4.10;;;31.40;54.60;;;;;;5032632;28;20545;-66
2023/06/13 12:14:40;;;;;;;4.80;3.73;;;31.20;55.00;;;;;;5032200;28;20479;-66
2023/06/13 12:17:09;;;;;;;5.83;4.00;;;31.30;54.40;;;;;;5032351;28;20474;-66
2023/06/13 12:19:36;;;;;;;6.10;4.17;;;31.20;53.30;;;;;;5032282;28;20462;-67
2023/06/13 12:22:04;;;;;;;5.03;3.60;;;31.00;52.60;;;;;;5032324;28;20537;-66
2023/06/13 12:24:31;;;;;;;7.77;4.40;;;31.10;54.50;;;;;;5032116;28;20509;-67
2023/06/13 12:26:58;;;;;;;6.43;4.17;;;31.20;55.20;;;;;;5032169;28;20463;-66
2023/06/13 12:29:27;;;;;;;6.10;3.80;;;31.50;55.00;;;;;;5032050;28;20489;-67
2023/06/13 12:32:02;;;;;;;5.47;4.10;;;31.60;53.00;;;;;;5032144;28;20454;-66
2023/06/13 12:34:31;;;;;;;7.37;4.60;;;31.70;51.60;;;;;;5032049;28;20463;-66
2023/06/13 12:37:04;;;;;;;6.67;3.83;;;31.60;53.60;;;;;;5031858;28;20471;-66
2023/06/13 12:39:32;;;;;;;5.97;4.00;;;31.60;54.00;;;;;;5032034;28;20463;-67
2023/06/13 12:42:02;;;;;;;12.83;4.93;;;31.60;53.80;;;;;;5014387;28;20465;-67
2023/06/13 12:44:33;;;;;;;6.30;4.10;;;31.70;55.20;;;;;;5031746;28;20498;-67
2023/06/13 12:47:03;;;;;;;6.27;4.30;;;31.90;53.70;;;;;;5014654;28;20960;-66
2023/06/13 12:49:36;;;;;;;7.13;4.07;;;31.80;52.70;;;;;;5031817;28;20558;-66
2023/06/13 12:52:06;;;;;;;5.87;4.07;;;31.90;53.20;;;;;;5032006;28;20558;-66
2023/06/13 12:54:35;;;;;;;7.27;4.33;;;32.00;52.60;;;;;;5031769;28;20490;-66